createdAt,value
2022-08-10T00:03:41.298Z,24.80
2022-08-10T00:08:43.802Z,24.80
2022-08-10T00:13:46.200Z,24.80
2022-08-10T00:18:49.002Z,24.80
2022-08-10T00:23:51.290Z,24.80
2022-08-10T00:28:53.479Z,24.80
2022-08-10T00:33:55.772Z,24.80
2022-08-10T00:38:57.962Z,24.70
2022-08-10T00:44:00.153Z,24.70
2022-08-10T00:49:02.753Z,24.70
2022-08-10T00:54:06.276Z,24.70
2022-08-10T00:59:08.464Z,24.70
2022-08-10T01:04:54.135Z,24.70
2022-08-10T01:09:55.706Z,24.70
2022-08-10T01:15:08.355Z,24.70
2022-08-10T01:20:30.470Z,24.70
2022-08-10T01:26:10.781Z,24.70
2022-08-10T01:31:04.007Z,24.70
2022-08-10T01:36:14.200Z,24.70
2022-08-10T01:41:24.655Z,24.60
2022-08-10T01:46:28.792Z,24.70
2022-08-10T01:51:39.964Z,24.60
2022-08-10T01:56:45.490Z,24.60
2022-08-10T02:01:51.672Z,24.60
2022-08-10T02:06:55.605Z,24.60
2022-08-10T02:12:08.967Z,24.60
2022-08-10T02:17:59.093Z,24.60
2022-08-10T02:22:39.364Z,24.60
2022-08-10T02:27:43.251Z,24.50
2022-08-10T02:32:52.585Z,24.60
2022-08-10T02:38:02.464Z,24.50
2022-08-10T02:45:19.061Z,24.60
2022-08-10T02:49:05.292Z,24.50
2022-08-10T02:54:12.385Z,24.50
2022-08-10T02:59:19.180Z,24.50
2022-08-10T03:04:55.995Z,24.50
2022-08-10T03:09:50.042Z,24.50
2022-08-10T03:14:53.712Z,24.50
2022-08-10T03:20:34.943Z,24.50
2022-08-10T03:25:23.518Z,24.40
2022-08-10T03:30:32.153Z,24.40
2022-08-10T03:35:36.226Z,24.40
2022-08-10T03:40:46.424Z,24.40
2022-08-10T03:45:54.870Z,24.40
2022-08-10T03:50:59.646Z,24.40
2022-08-10T03:56:26.948Z,24.40
2022-08-10T04:02:46.060Z,24.30
2022-08-10T04:06:51.333Z,24.30
2022-08-10T04:11:56.638Z,24.40
2022-08-10T04:17:01.917Z,24.30
2022-08-10T04:22:10.024Z,24.30
2022-08-10T04:27:12.930Z,24.30
2022-08-10T04:32:19.287Z,24.30
2022-08-10T04:37:23.023Z,24.30
2022-08-10T04:42:25.440Z,24.30
2022-08-10T04:47:57.780Z,24.30
2022-08-10T04:52:49.959Z,24.30
2022-08-10T04:57:52.170Z,24.30
2022-08-10T05:02:54.362Z,24.30
2022-08-10T05:07:57.066Z,24.30
2022-08-10T05:12:59.384Z,24.30
2022-08-10T05:18:10.039Z,24.30
2022-08-10T05:23:13.832Z,24.30
2022-08-10T05:28:16.978Z,24.30
2022-08-10T05:33:19.168Z,24.30
2022-08-10T05:38:23.713Z,24.30
2022-08-10T05:43:26.619Z,24.30
2022-08-10T05:48:53.917Z,24.30
2022-08-10T05:54:02.656Z,24.30
2022-08-10T05:59:08.742Z,24.30
2022-08-10T06:04:17.976Z,24.30
2022-08-10T06:09:21.744Z,24.40
2022-08-10T06:14:43.107Z,24.30
2022-08-10T06:20:00.517Z,24.40
2022-08-10T06:25:37.685Z,24.40
2022-08-10T06:30:28.565Z,24.40
2022-08-10T06:35:34.131Z,24.40
2022-08-10T06:40:42.874Z,24.50
2022-08-10T06:46:07.674Z,24.50
2022-08-10T06:51:20.309Z,24.50
2022-08-10T06:56:36.687Z,24.50
2022-08-10T07:01:51.579Z,24.50
2022-08-10T07:06:56.437Z,24.50
2022-08-10T07:12:08.061Z,24.50
2022-08-10T07:17:18.946Z,24.50
2022-08-10T07:23:50.647Z,24.50
2022-08-10T07:27:59.525Z,24.60
2022-08-10T07:33:05.532Z,24.70
2022-08-10T07:38:12.729Z,24.70
2022-08-10T07:43:17.382Z,24.70
2022-08-10T07:48:26.225Z,24.70
2022-08-10T07:53:42.741Z,24.80
2022-08-10T07:58:52.890Z,24.80
2022-08-10T08:04:05.275Z,24.80
2022-08-10T08:09:18.515Z,24.80
2022-08-10T08:14:22.512Z,24.80
2022-08-10T08:19:28.266Z,24.90
2022-08-10T08:24:41.457Z,24.80
2022-08-10T08:29:53.440Z,24.80
2022-08-10T08:35:06.456Z,24.90
2022-08-10T08:40:15.596Z,24.90
2022-08-10T08:46:01.012Z,24.90
2022-08-10T08:51:10.764Z,25.00
2022-08-10T08:56:30.869Z,25.00
2022-08-10T09:01:57.123Z,25.10
2022-08-10T09:08:02.100Z,25.00
2022-08-10T09:13:16.611Z,25.10
2022-08-10T09:18:33.852Z,25.10
2022-08-10T09:24:04.141Z,25.10
2022-08-10T09:29:14.457Z,25.10
2022-08-10T09:36:24.066Z,25.20
2022-08-10T09:40:58.879Z,25.20
2022-08-10T09:46:13.879Z,25.30
2022-08-10T09:51:50.768Z,25.30
2022-08-10T09:57:24.426Z,25.30
2022-08-10T10:02:38.994Z,25.40
2022-08-10T10:07:48.274Z,25.40
2022-08-10T10:13:03.277Z,25.40
2022-08-10T10:18:08.433Z,25.40
2022-08-10T10:23:32.422Z,25.40
2022-08-10T10:34:35.234Z,25.50
2022-08-10T10:39:44.685Z,25.60
2022-08-10T10:44:59.368Z,25.60
2022-08-10T10:50:15.167Z,25.40
2022-08-10T10:56:14.513Z,25.20
2022-08-10T11:01:21.122Z,25.30
2022-08-10T11:06:40.606Z,25.20
2022-08-10T11:12:00.177Z,25.10
2022-08-10T11:17:42.223Z,25.20
2022-08-10T11:23:02.323Z,25.10
2022-08-10T11:28:17.917Z,25.10
2022-08-10T11:34:03.938Z,25.10
2022-08-10T11:39:36.629Z,25.00
2022-08-10T11:44:59.659Z,25.10
2022-08-10T11:50:06.838Z,25.00
2022-08-10T11:55:21.714Z,25.00
2022-08-10T12:00:32.457Z,25.10
2022-08-10T12:05:52.003Z,24.90
2022-08-10T12:10:58.615Z,25.00
2022-08-10T12:16:07.109Z,24.90
2022-08-10T12:21:21.954Z,25.00
2022-08-10T12:26:42.324Z,24.90
2022-08-10T12:32:05.302Z,25.00
2022-08-10T12:37:17.610Z,24.90
2022-08-10T12:42:38.863Z,25.10
2022-08-10T12:48:03.538Z,24.90
2022-08-10T12:53:33.259Z,25.10
2022-08-10T12:58:59.690Z,24.90
2022-08-10T13:04:22.365Z,25.10
2022-08-10T13:09:27.883Z,24.90
2022-08-10T13:14:46.692Z,25.10
2022-08-10T13:19:56.161Z,25.30
2022-08-10T13:25:04.982Z,25.40
2022-08-10T13:30:09.436Z,25.50
2022-08-10T13:35:19.573Z,25.50
2022-08-10T13:40:23.834Z,25.60
2022-08-10T13:45:26.852Z,25.60
2022-08-10T13:50:35.660Z,25.60
2022-08-10T13:55:56.793Z,25.60
2022-08-10T14:01:02.514Z,25.70
2022-08-10T14:06:09.406Z,25.70
2022-08-10T14:11:15.876Z,25.70
2022-08-10T14:16:19.496Z,25.70
2022-08-10T14:21:22.400Z,25.80
2022-08-10T14:26:28.994Z,25.90
2022-08-10T14:31:34.464Z,25.90
2022-08-10T14:36:36.882Z,25.90
2022-08-10T14:42:04.169Z,25.90
2022-08-10T14:47:53.310Z,25.90
2022-08-10T14:52:29.473Z,25.90
2022-08-10T14:58:16.575Z,25.90
2022-08-10T15:03:03.480Z,25.90
2022-08-10T15:08:28.442Z,25.90
2022-08-10T15:13:35.848Z,25.90
2022-08-10T15:18:58.371Z,25.90
2022-08-10T15:24:09.969Z,25.90
2022-08-10T15:29:25.763Z,25.90
2022-08-10T15:35:05.710Z,25.90
2022-08-10T15:40:25.729Z,25.90
2022-08-10T15:45:40.170Z,25.90
2022-08-10T15:50:48.970Z,25.90
2022-08-10T15:55:59.149Z,25.90
2022-08-10T16:02:04.534Z,25.90
2022-08-10T16:07:13.519Z,25.90
2022-08-10T16:12:41.291Z,25.90
2022-08-10T16:17:59.344Z,25.80
2022-08-10T16:23:11.665Z,25.80
2022-08-10T16:28:23.316Z,25.80
2022-08-10T16:33:54.223Z,25.80
2022-08-10T16:38:59.248Z,25.90
2022-08-10T16:44:03.819Z,25.90
2022-08-10T16:49:07.949Z,25.80
2022-08-10T16:54:13.528Z,25.80
2022-08-10T16:59:20.819Z,25.80
2022-08-10T17:04:27.107Z,25.80
2022-08-10T17:09:32.520Z,25.80
2022-08-10T17:14:38.450Z,25.80
2022-08-10T17:19:47.111Z,25.80
2022-08-10T17:24:54.806Z,25.80
2022-08-10T17:30:04.873Z,25.80
2022-08-10T17:35:14.206Z,25.80
2022-08-10T17:40:21.635Z,25.80
2022-08-10T17:45:47.881Z,25.80
2022-08-10T17:50:52.521Z,25.80
2022-08-10T17:55:57.679Z,25.80
2022-08-10T18:01:41.878Z,25.70
2022-08-10T18:06:27.238Z,25.80
2022-08-10T18:11:34.468Z,25.80
2022-08-10T18:16:41.889Z,25.80
2022-08-10T18:21:47.927Z,25.80
2022-08-10T18:26:53.599Z,25.80
2022-08-10T18:31:59.065Z,25.70
2022-08-10T18:37:06.077Z,25.70
2022-08-10T18:42:21.524Z,25.70
2022-08-10T18:48:08.569Z,25.70
2022-08-10T18:53:19.558Z,25.70
2022-08-10T18:59:00.765Z,25.70
2022-08-10T19:04:34.754Z,25.70
2022-08-10T19:10:11.297Z,25.70
2022-08-10T19:15:42.172Z,25.70
2022-08-10T19:21:08.004Z,25.60
2022-08-10T19:26:44.015Z,25.70
2022-08-10T19:32:05.574Z,25.60
2022-08-10T19:37:32.759Z,25.60
2022-08-10T19:42:43.861Z,25.60
2022-08-10T19:47:59.448Z,25.60
2022-08-10T19:53:08.805Z,25.60
2022-08-10T19:58:26.744Z,25.60
2022-08-10T20:04:17.151Z,25.60
2022-08-10T20:09:56.701Z,25.60
2022-08-10T20:15:20.898Z,25.50
2022-08-10T20:20:44.749Z,25.50
2022-08-10T20:26:07.830Z,25.50
2022-08-10T20:31:25.584Z,25.50
2022-08-10T20:36:43.637Z,25.50
2022-08-10T20:42:29.919Z,25.50
2022-08-10T20:47:53.746Z,25.50
2022-08-10T20:53:33.157Z,25.50
2022-08-10T20:59:08.821Z,25.40
2022-08-10T21:05:00.124Z,25.50
2022-08-10T21:10:06.938Z,25.50
2022-08-10T21:16:02.002Z,25.40
2022-08-10T21:21:42.788Z,25.40
2022-08-10T21:26:50.519Z,25.40
2022-08-10T21:31:53.701Z,25.40
2022-08-10T21:37:12.776Z,25.40
2022-08-10T21:43:02.038Z,25.40
2022-08-10T21:48:57.815Z,25.40
2022-08-10T21:54:35.453Z,25.40
2022-08-10T22:05:55.968Z,25.40
2022-08-10T22:11:20.248Z,25.30
2022-08-10T22:17:05.744Z,25.40
2022-08-10T22:23:19.538Z,25.30
2022-08-10T22:28:48.758Z,25.30
2022-08-10T22:34:27.497Z,25.30
2022-08-10T22:40:22.337Z,25.30
2022-08-10T22:45:45.161Z,25.20
2022-08-10T22:50:58.234Z,25.30
2022-08-10T22:56:20.231Z,25.30
2022-08-10T23:01:41.868Z,25.20
2022-08-10T23:07:13.217Z,25.20
2022-08-10T23:12:41.509Z,25.20
2022-08-10T23:18:17.974Z,25.30
2022-08-10T23:23:29.679Z,25.20
2022-08-10T23:28:38.925Z,25.20
2022-08-10T23:34:02.609Z,25.20
2022-08-10T23:39:27.531Z,25.20
2022-08-10T23:44:49.690Z,25.20
2022-08-10T23:49:54.719Z,25.20
2022-08-10T23:55:07.300Z,25.20
